Latest Weather Observations for Sellicks Hill

IDS60901

Issued at 7:01 pm CDT Monday 5 December 2022 (issued every 10 minutes, with the page automatically refreshed every 10 minutes)

About weather observations | Map of Adelaide area stations | Latest observations for Adelaide area | Other Formats
Station Details ID: 023886 Name: MOUNT TERRIBLE RADAR Lat: -35.33 Lon: 138.50 Height: 385.7 m
Data from the previous 72 hours. | See also: Recent months at Sellicks Hill
Date/Time
CDT
Temp
°C
App
Temp
°C
Dew
Point
°C
Rel
Hum
%
Delta-T
°C
Wind Press
QNH
hPa
Press
MSL
hPa
Rain since
9am
mm
Dir  Spd
km/h
Gust
km/h
Spd
kts
Gust
kts
05/07:00pm - - - - - SSE 54 67 29 36 - - -
05/06:30pm - - - - - SSE 48 57 26 31 - - -
05/06:00pm - - - - - SSE 48 61 26 33 - - -
05/05:30pm - - - - - SSE 46 56 25 30 - - -
05/05:00pm - - - - - SSE 41 50 22 27 - - -
05/04:30pm - - - - - SSE 33 44 18 24 - - -
05/04:00pm - - - - - SSE 30 41 16 22 - - -
05/03:30pm - - - - - SSE 35 44 19 24 - - -
05/03:00pm - - - - - S 33 50 18 27 - - -
05/02:30pm - - - - - SSE 32 43 17 23 - - -
05/02:00pm - - - - - SSE 37 46 20 25 - - -
05/01:30pm - - - - - SSE 37 50 20 27 - - -
05/01:00pm - - - - - SSE 37 50 20 27 - - -
05/12:30pm - - - - - SSE 39 48 21 26 - - -
05/12:00pm - - - - - SSE 35 46 19 25 - - -
05/11:30am - - - - - SSE 35 44 19 24 - - -
05/11:00am - - - - - SSE 37 46 20 25 - - -
05/10:30am - - - - - SSE 35 46 19 25 - - -
05/10:00am - - - - - SSE 37 48 20 26 - - -
05/09:30am - - - - - SSE 39 54 21 29 - - -
05/09:00am - - - - - SSE 39 50 21 27 - - -
05/08:30am - - - - - SSE 39 52 21 28 - - -
05/08:00am - - - - - SSE 41 50 22 27 - - -
05/07:30am - - - - - SSE 41 54 22 29 - - -
05/07:00am - - - - - SSE 41 56 22 30 - - -
05/06:30am - - - - - SSE 41 52 22 28 - - -
05/06:00am - - - - - SSE 35 46 19 25 - - -
05/05:30am - - - - - SSE 39 46 21 25 - - -
05/05:00am - - - - - SSE 37 46 20 25 - - -
05/04:30am - - - - - SSE 41 52 22 28 - - -
05/04:00am - - - - - SSE 43 54 23 29 - - -
05/03:30am - - - - - SSE 44 57 24 31 - - -
05/03:00am - - - - - SSE 43 57 23 31 - - -
05/02:30am - - - - - SSE 41 52 22 28 - - -
05/02:00am - - - - - SSE 43 54 23 29 - - -
05/01:30am - - - - - S 41 52 22 28 - - -
05/01:00am - - - - - SSE 26 35 14 19 - - -
05/12:30am - - - - - SSE 32 43 17 23 - - -
05/12:00am - - - - - S 20 33 11 18 - - -
 
Date/Time
CDT
Temp
°C
App
Temp
°C
Dew
Point
°C
Rel
Hum
%
Delta-T
°C
Wind Press
QNH
hPa
Press
MSL
hPa
Rain since
9am
mm
Dir  Spd
km/h
Gust
km/h
Spd
kts
Gust
kts
04/11:30pm - - - - - SSW 13 30 7 16 - - -
04/11:00pm - - - - - S 33 48 18 26 - - -
04/10:30pm - - - - - S 35 43 19 23 - - -
04/10:00pm - - - - - S 35 48 19 26 - - -
04/09:48pm - - - - - S 35 54 19 29 - - -
04/09:30pm - - - - - S 33 43 18 23 - - -
04/09:00pm - - - - - S 32 43 17 23 - - -
04/08:30pm - - - - - SSE 35 41 19 22 - - -
04/08:00pm - - - - - S 33 41 18 22 - - -
04/07:30pm - - - - - SSE 33 39 18 21 - - -
04/07:00pm - - - - - SSE 30 33 16 18 - - -
04/06:30pm - - - - - SSE 28 33 15 18 - - -
04/06:00pm - - - - - SSE 22 24 12 13 - - -
04/05:30pm - - - - - S 11 19 6 10 - - -
04/05:00pm - - - - - WSW 2 7 1 4 - - -
04/04:30pm - - - - - W 4 11 2 6 - - -
04/04:00pm - - - - - WNW 4 9 2 5 - - -
04/03:30pm - - - - - WNW 7 17 4 9 - - -
04/03:00pm - - - - - WNW 7 13 4 7 - - -
04/02:30pm - - - - - WNW 6 13 3 7 - - -
04/02:00pm - - - - - NW 7 13 4 7 - - -
04/01:30pm - - - - - NNW 6 11 3 6 - - -
04/01:00pm - - - - - NNW 6 9 3 5 - - -
04/12:30pm - - - - - NW 7 13 4 7 - - -
04/12:00pm - - - - - NNW 13 28 7 15 - - -
04/11:30am - - - - - NNW 13 22 7 12 - - -
04/11:00am - - - - - NNW 15 26 8 14 - - -
04/10:30am - - - - - NNW 11 17 6 9 - - -
04/10:00am - - - - - NNW 13 24 7 13 - - -
04/09:30am - - - - - N 11 19 6 10 - - -
04/09:00am - - - - - N 11 20 6 11 - - -
04/08:30am - - - - - N 13 19 7 10 - - -
04/08:00am - - - - - N 11 17 6 9 - - -
04/07:30am - - - - - NNW 11 17 6 9 - - -
04/07:00am - - - - - N 7 11 4 6 - - -
04/06:30am - - - - - N 7 11 4 6 - - -
04/06:00am - - - - - NNE 6 9 3 5 - - -
04/05:30am - - - - - NNE 2 6 1 3 - - -
04/05:00am - - - - - NNE 4 7 2 4 - - -
04/04:30am - - - - - NNE 6 11 3 6 - - -
04/04:00am - - - - - NNE 7 13 4 7 - - -
04/03:30am - - - - - NE 9 17 5 9 - - -
04/03:00am - - - - - NNE 7 13 4 7 - - -
04/02:30am - - - - - ENE 13 20 7 11 - - -
04/02:00am - - - - - E 11 17 6 9 - - -
04/01:30am - - - - - E 13 19 7 10 - - -
04/01:00am - - - - - E 13 17 7 9 - - -
04/12:30am - - - - - E 15 19 8 10 - - -
04/12:00am - - - - - E 15 19 8 10 - - -
 
Date/Time
CDT
Temp
°C
App
Temp
°C
Dew
Point
°C
Rel
Hum
%
Delta-T
°C
Wind Press
QNH
hPa
Press
MSL
hPa
Rain since
9am
mm
Dir  Spd
km/h
Gust
km/h
Spd
kts
Gust
kts
03/11:30pm - - - - - ESE 15 19 8 10 - - -
03/11:00pm - - - - - ESE 13 17 7 9 - - -
03/10:30pm - - - - - E 15 19 8 10 - - -
03/10:00pm - - - - - ESE 13 15 7 8 - - -
03/09:30pm - - - - - ESE 13 17 7 9 - - -
03/09:00pm - - - - - SE 13 15 7 8 - - -
03/08:30pm - - - - - SE 13 15 7 8 - - -
03/08:00pm - - - - - SE 11 13 6 7 - - -
03/07:30pm - - - - - SSE 9 11 5 6 - - -
03/07:00pm - - - - - SSW 4 6 2 3 - - -
03/06:30pm - - - - - W 4 7 2 4 - - -
03/06:00pm - - - - - W 4 7 2 4 - - -
03/05:30pm - - - - - W 4 7 2 4 - - -
03/05:00pm - - - - - W 2 7 1 4 - - -
03/04:30pm - - - - - WSW 4 9 2 5 - - -
03/04:00pm - - - - - SSW 6 11 3 6 - - -
03/03:30pm - - - - - S 6 9 3 5 - - -
03/03:00pm - - - - - WNW 6 11 3 6 - - -
03/02:30pm - - - - - W 4 9 2 5 - - -
03/02:00pm - - - - - NW 6 11 3 6 - - -
03/01:30pm - - - - - NNW 7 13 4 7 - - -
03/01:00pm - - - - - NW 6 11 3 6 - - -
03/12:30pm - - - - - NW 6 11 3 6 - - -
03/12:00pm - - - - - NNW 9 17 5 9 - - -
03/11:30am - - - - - NNW 9 17 5 9 - - -
03/11:00am - - - - - NNW 7 13 4 7 - - -
03/10:30am - - - - - N 7 15 4 8 - - -
03/10:00am - - - - - N 7 11 4 6 - - -
03/09:30am - - - - - N 7 13 4 7 - - -
03/09:00am - - - - - NNE 9 13 5 7 - - -
03/08:30am - - - - - NNE 7 13 4 7 - - -
03/08:00am - - - - - NE 7 13 4 7 - - -
03/07:30am - - - - - NE 6 11 3 6 - - -
03/07:00am - - - - - ENE 7 13 4 7 - - -
03/06:30am - - - - - ENE 13 19 7 10 - - -
03/06:00am - - - - - ENE 19 30 10 16 - - -
03/05:30am - - - - - ENE 22 32 12 17 - - -
03/05:00am - - - - - ENE 22 32 12 17 - - -
03/04:30am - - - - - E 20 30 11 16 - - -
03/04:00am - - - - - E 20 28 11 15 - - -
03/03:30am - - - - - E 22 30 12 16 - - -
03/03:00am - - - - - E 22 32 12 17 - - -
03/02:30am - - - - - E 22 32 12 17 - - -
03/02:00am - - - - - E 22 32 12 17 - - -
03/01:30am - - - - - E 22 30 12 16 - - -
03/01:00am - - - - - ESE 20 30 11 16 - - -
03/12:30am - - - - - ESE 17 24 9 13 - - -
03/12:00am - - - - - ESE 19 22 10 12 - - -
 
Date/Time
CDT
Temp
°C
App
Temp
°C
Dew
Point
°C
Rel
Hum
%
Delta-T
°C
Wind Press
QNH
hPa
Press
MSL
hPa
Rain since
9am
mm
Dir  Spd
km/h
Gust
km/h
Spd
kts
Gust
kts
02/11:30pm - - - - - SE 20 24 11 13 - - -
02/11:00pm - - - - - SE 22 26 12 14 - - -
02/10:30pm - - - - - SE 22 26 12 14 - - -
02/10:00pm - - - - - SE 20 24 11 13 - - -
02/09:30pm - - - - - SE 19 22 10 12 - - -
02/09:00pm - - - - - SE 20 22 11 12 - - -
02/08:30pm - - - - - SE 20 22 11 12 - - -
02/08:00pm - - - - - SE 20 24 11 13 - - -
02/07:30pm - - - - - SSE 22 24 12 13 - - -

Latest Capital City Observations: Canberra | Sydney | Melbourne | Brisbane | Adelaide | Perth | Hobart | Darwin

Other formats

Comma delimited format used in spreadsheet applications
http://www.bom.gov.au/fwo/IDS60901/IDS60901.95679.axf

JavaScript Object Notation format (JSON) in row-major order
http://www.bom.gov.au/fwo/IDS60901/IDS60901.95679.json

Data quality

Most of these data are generated automatically and are frequently updated. Quality checks on data are not normally performed. It is possible for incorrect values to appear. Refer to information at About Latest Weather Observations and please check the disclaimer before using these data.